sensor_id;sensor_type;location;lat;lon;timestamp;temperature;humidity
913;DHT22;443;51.448;7.028;2023-02-13T00:00:15;12.90;70.50
913;DHT22;443;51.448;7.028;2023-02-13T00:02:42;12.80;71.00
913;DHT22;443;51.448;7.028;2023-02-13T00:05:10;12.80;70.70
913;DHT22;443;51.448;7.028;2023-02-13T00:07:37;12.80;71.00
913;DHT22;443;51.448;7.028;2023-02-13T00:10:05;12.80;71.00
913;DHT22;443;51.448;7.028;2023-02-13T00:12:32;12.80;70.90
913;DHT22;443;51.448;7.028;2023-02-13T00:14:59;12.80;71.00
913;DHT22;443;51.448;7.028;2023-02-13T00:17:25;12.80;71.00
913;DHT22;443;51.448;7.028;2023-02-13T00:19:52;12.80;71.10
913;DHT22;443;51.448;7.028;2023-02-13T00:22:20;12.80;71.20
913;DHT22;443;51.448;7.028;2023-02-13T00:24:47;12.80;70.90
913;DHT22;443;51.448;7.028;2023-02-13T00:27:14;12.80;71.30
913;DHT22;443;51.448;7.028;2023-02-13T00:29:41;12.80;71.50
913;DHT22;443;51.448;7.028;2023-02-13T00:32:08;12.80;71.10
913;DHT22;443;51.448;7.028;2023-02-13T00:34:34;12.80;71.10
913;DHT22;443;51.448;7.028;2023-02-13T00:37:01;12.70;71.20
913;DHT22;443;51.448;7.028;2023-02-13T00:39:29;12.70;71.40
913;DHT22;443;51.448;7.028;2023-02-13T00:41:56;12.80;71.30
913;DHT22;443;51.448;7.028;2023-02-13T00:44:23;12.80;71.30
913;DHT22;443;51.448;7.028;2023-02-13T00:46:49;12.80;71.60
913;DHT22;443;51.448;7.028;2023-02-13T00:49:16;12.80;71.00
913;DHT22;443;51.448;7.028;2023-02-13T00:51:43;12.80;70.90
913;DHT22;443;51.448;7.028;2023-02-13T00:54:10;12.80;70.90
913;DHT22;443;51.448;7.028;2023-02-13T00:56:38;12.80;70.70
913;DHT22;443;51.448;7.028;2023-02-13T00:59:05;12.80;70.70
913;DHT22;443;51.448;7.028;2023-02-13T01:01:31;12.80;70.80
913;DHT22;443;51.448;7.028;2023-02-13T01:03:58;12.80;70.80
913;DHT22;443;51.448;7.028;2023-02-13T01:06:25;12.80;70.30
913;DHT22;443;51.448;7.028;2023-02-13T01:08:51;12.80;70.30
913;DHT22;443;51.448;7.028;2023-02-13T01:11:18;12.80;70.20
913;DHT22;443;51.448;7.028;2023-02-13T01:13:46;12.80;70.50
913;DHT22;443;51.448;7.028;2023-02-13T01:16:13;12.80;70.40
913;DHT22;443;51.448;7.028;2023-02-13T01:18:42;12.80;70.50
913;DHT22;443;51.448;7.028;2023-02-13T01:21:15;12.80;70.60
913;DHT22;443;51.448;7.028;2023-02-13T01:23:42;12.80;70.30
913;DHT22;443;51.448;7.028;2023-02-13T01:26:15;12.80;70.30
913;DHT22;443;51.448;7.028;2023-02-13T01:28:42;12.80;70.40
913;DHT22;443;51.448;7.028;2023-02-13T01:31:10;12.80;70.70
913;DHT22;443;51.448;7.028;2023-02-13T01:33:36;12.80;70.50
913;DHT22;443;51.448;7.028;2023-02-13T01:36:08;12.80;70.40
913;DHT22;443;51.448;7.028;2023-02-13T01:38:35;12.80;70.40
913;DHT22;443;51.448;7.028;2023-02-13T01:41:03;12.80;70.70
913;DHT22;443;51.448;7.028;2023-02-13T01:43:47;12.80;70.40
913;DHT22;443;51.448;7.028;2023-02-13T01:46:21;12.80;70.30
913;DHT22;443;51.448;7.028;2023-02-13T01:48:50;12.80;70.40
913;DHT22;443;51.448;7.028;2023-02-13T01:51:21;12.80;70.50
913;DHT22;443;51.448;7.028;2023-02-13T01:53:52;12.70;70.40
913;DHT22;443;51.448;7.028;2023-02-13T01:56:25;12.80;70.50
913;DHT22;443;51.448;7.028;2023-02-13T01:58:55;12.80;70.50
913;DHT22;443;51.448;7.028;2023-02-13T02:01:27;12.70;70.30
913;DHT22;443;51.448;7.028;2023-02-13T02:03:57;12.80;70.90
913;DHT22;443;51.448;7.028;2023-02-13T02:06:27;12.70;70.80
913;DHT22;443;51.448;7.028;2023-02-13T02:08:56;12.70;71.00
913;DHT22;443;51.448;7.028;2023-02-13T02:11:29;12.80;71.00
913;DHT22;443;51.448;7.028;2023-02-13T02:13:58;12.70;71.20
913;DHT22;443;51.448;7.028;2023-02-13T02:16:28;12.80;71.00
913;DHT22;443;51.448;7.028;2023-02-13T02:18:55;12.80;71.20
913;DHT22;443;51.448;7.028;2023-02-13T02:21:56;12.80;70.40
913;DHT22;443;51.448;7.028;2023-02-13T02:25:05;12.70;70.50
913;DHT22;443;51.448;7.028;2023-02-13T02:28:09;12.70;70.50
913;DHT22;443;51.448;7.028;2023-02-13T02:33:58;12.60;70.50
913;DHT22;443;51.448;7.028;2023-02-13T02:36:37;12.60;70.80
913;DHT22;443;51.448;7.028;2023-02-13T02:39:15;12.60;70.80
913;DHT22;443;51.448;7.028;2023-02-13T02:41:56;12.60;70.90
913;DHT22;443;51.448;7.028;2023-02-13T02:44:33;12.60;70.70
913;DHT22;443;51.448;7.028;2023-02-13T02:47:09;12.70;70.70
913;DHT22;443;51.448;7.028;2023-02-13T02:50:07;12.70;70.90
913;DHT22;443;51.448;7.028;2023-02-13T02:52:44;12.60;70.70
913;DHT22;443;51.448;7.028;2023-02-13T02:55:21;12.60;70.80
913;DHT22;443;51.448;7.028;2023-02-13T02:57:59;12.60;70.80
913;DHT22;443;51.448;7.028;2023-02-13T03:00:42;12.60;70.70
913;DHT22;443;51.448;7.028;2023-02-13T03:03:27;12.60;70.70
913;DHT22;443;51.448;7.028;2023-02-13T03:06:17;12.60;70.70
913;DHT22;443;51.448;7.028;2023-02-13T03:08:53;12.60;70.70
913;DHT22;443;51.448;7.028;2023-02-13T03:11:39;12.60;70.80
913;DHT22;443;51.448;7.028;2023-02-13T03:14:36;12.60;70.80
913;DHT22;443;51.448;7.028;2023-02-13T03:17:03;12.70;70.70
913;DHT22;443;51.448;7.028;2023-02-13T03:19:54;12.60;70.60
913;DHT22;443;51.448;7.028;2023-02-13T03:22:49;12.60;70.80
913;DHT22;443;51.448;7.028;2023-02-13T03:25:24;12.60;71.10
913;DHT22;443;51.448;7.028;2023-02-13T03:28:03;12.50;70.10
913;DHT22;443;51.448;7.028;2023-02-13T03:30:57;12.50;70.60
913;DHT22;443;51.448;7.028;2023-02-13T03:33:39;12.50;70.30
913;DHT22;443;51.448;7.028;2023-02-13T03:36:14;12.50;70.90
913;DHT22;443;51.448;7.028;2023-02-13T03:39:19;12.50;70.70
913;DHT22;443;51.448;7.028;2023-02-13T03:41:51;12.50;71.00
913;DHT22;443;51.448;7.028;2023-02-13T03:44:24;12.50;70.80
913;DHT22;443;51.448;7.028;2023-02-13T03:46:53;12.40;70.20
913;DHT22;443;51.448;7.028;2023-02-13T03:49:22;12.50;71.10
913;DHT22;443;51.448;7.028;2023-02-13T03:52:14;12.50;71.00
913;DHT22;443;51.448;7.028;2023-02-13T03:54:44;12.40;70.20
913;DHT22;443;51.448;7.028;2023-02-13T03:57:32;12.50;71.70
913;DHT22;443;51.448;7.028;2023-02-13T04:00:18;12.40;70.50
913;DHT22;443;51.448;7.028;2023-02-13T04:02:52;12.40;70.10
913;DHT22;443;51.448;7.028;2023-02-13T04:05:22;12.40;70.50
913;DHT22;443;51.448;7.028;2023-02-13T04:07:50;12.40;71.00
913;DHT22;443;51.448;7.028;2023-02-13T04:10:19;12.40;70.80
913;DHT22;443;51.448;7.028;2023-02-13T04:12:52;12.40;70.90
913;DHT22;443;51.448;7.028;2023-02-13T04:15:25;12.30;70.80
913;DHT22;443;51.448;7.028;2023-02-13T04:17:58;12.30;70.50
913;DHT22;443;51.448;7.028;2023-02-13T04:20:29;12.40;71.00
913;DHT22;443;51.448;7.028;2023-02-13T04:22:56;12.40;70.90
913;DHT22;443;51.448;7.028;2023-02-13T04:25:24;12.40;71.30
913;DHT22;443;51.448;7.028;2023-02-13T04:27:51;12.40;71.10
913;DHT22;443;51.448;7.028;2023-02-13T04:30:18;12.40;71.60
913;DHT22;443;51.448;7.028;2023-02-13T04:32:45;12.40;70.80
913;DHT22;443;51.448;7.028;2023-02-13T04:35:12;12.40;71.00
913;DHT22;443;51.448;7.028;2023-02-13T04:37:39;12.40;71.90
913;DHT22;443;51.448;7.028;2023-02-13T04:40:06;12.30;70.80
913;DHT22;443;51.448;7.028;2023-02-13T04:42:35;12.30;70.90
913;DHT22;443;51.448;7.028;2023-02-13T04:45:02;12.30;71.00
913;DHT22;443;51.448;7.028;2023-02-13T04:47:28;12.30;71.10
913;DHT22;443;51.448;7.028;2023-02-13T04:49:55;12.40;71.80
913;DHT22;443;51.448;7.028;2023-02-13T04:52:22;12.30;71.10
913;DHT22;443;51.448;7.028;2023-02-13T04:54:49;12.30;70.80
913;DHT22;443;51.448;7.028;2023-02-13T04:57:16;12.30;71.30
913;DHT22;443;51.448;7.028;2023-02-13T04:59:44;12.30;70.80
913;DHT22;443;51.448;7.028;2023-02-13T05:02:11;12.30;71.10
913;DHT22;443;51.448;7.028;2023-02-13T05:04:38;12.30;71.10
913;DHT22;443;51.448;7.028;2023-02-13T05:07:05;12.30;71.10
913;DHT22;443;51.448;7.028;2023-02-13T05:09:31;12.30;71.20
913;DHT22;443;51.448;7.028;2023-02-13T05:11:58;12.30;71.10
913;DHT22;443;51.448;7.028;2023-02-13T05:14:25;12.30;71.40
913;DHT22;443;51.448;7.028;2023-02-13T05:16:53;12.30;71.60
913;DHT22;443;51.448;7.028;2023-02-13T05:19:20;12.30;71.40
913;DHT22;443;51.448;7.028;2023-02-13T05:21:46;12.40;71.40
913;DHT22;443;51.448;7.028;2023-02-13T05:24:31;12.40;71.60
913;DHT22;443;51.448;7.028;2023-02-13T05:26:57;12.30;71.70
913;DHT22;443;51.448;7.028;2023-02-13T05:29:24;12.30;71.70
913;DHT22;443;51.448;7.028;2023-02-13T05:31:54;12.30;72.10
913;DHT22;443;51.448;7.028;2023-02-13T05:34:22;12.30;72.00
913;DHT22;443;51.448;7.028;2023-02-13T05:36:49;12.30;71.80
913;DHT22;443;51.448;7.028;2023-02-13T05:39:16;12.30;71.80
913;DHT22;443;51.448;7.028;2023-02-13T05:41:44;12.40;71.70
913;DHT22;443;51.448;7.028;2023-02-13T05:44:11;12.40;71.90
913;DHT22;443;51.448;7.028;2023-02-13T05:46:39;12.40;72.10
913;DHT22;443;51.448;7.028;2023-02-13T05:49:08;12.40;71.60
913;DHT22;443;51.448;7.028;2023-02-13T05:51:35;12.40;71.60
913;DHT22;443;51.448;7.028;2023-02-13T05:54:03;12.40;72.00
913;DHT22;443;51.448;7.028;2023-02-13T05:56:29;12.40;71.60
913;DHT22;443;51.448;7.028;2023-02-13T05:58:56;12.40;71.90
913;DHT22;443;51.448;7.028;2023-02-13T06:01:23;12.40;71.70
913;DHT22;443;51.448;7.028;2023-02-13T06:03:51;12.40;71.90
913;DHT22;443;51.448;7.028;2023-02-13T06:06:19;12.40;71.90
913;DHT22;443;51.448;7.028;2023-02-13T06:08:47;12.40;71.90
913;DHT22;443;51.448;7.028;2023-02-13T06:11:13;12.40;71.80
913;DHT22;443;51.448;7.028;2023-02-13T06:13:40;12.40;71.70
913;DHT22;443;51.448;7.028;2023-02-13T06:16:07;12.40;71.60
913;DHT22;443;51.448;7.028;2023-02-13T06:18:34;12.40;71.70
913;DHT22;443;51.448;7.028;2023-02-13T06:21:02;12.40;71.30
913;DHT22;443;51.448;7.028;2023-02-13T06:23:31;12.40;71.90
913;DHT22;443;51.448;7.028;2023-02-13T06:26:01;12.40;71.40
913;DHT22;443;51.448;7.028;2023-02-13T06:28:28;12.40;72.00
913;DHT22;443;51.448;7.028;2023-02-13T06:30:54;12.30;71.00
913;DHT22;443;51.448;7.028;2023-02-13T06:33:21;12.30;71.30
913;DHT22;443;51.448;7.028;2023-02-13T06:35:48;12.30;71.40
913;DHT22;443;51.448;7.028;2023-02-13T06:38:14;12.30;71.60
913;DHT22;443;51.448;7.028;2023-02-13T06:40:44;12.30;71.30
913;DHT22;443;51.448;7.028;2023-02-13T06:43:11;12.30;71.50
913;DHT22;443;51.448;7.028;2023-02-13T06:45:39;12.30;71.60
913;DHT22;443;51.448;7.028;2023-02-13T06:48:06;12.30;71.60
913;DHT22;443;51.448;7.028;2023-02-13T06:50:33;12.30;71.20
913;DHT22;443;51.448;7.028;2023-02-13T06:53:00;12.30;71.10
913;DHT22;443;51.448;7.028;2023-02-13T06:55:27;12.30;71.70
913;DHT22;443;51.448;7.028;2023-02-13T06:57:55;12.30;71.30
913;DHT22;443;51.448;7.028;2023-02-13T07:00:22;12.30;71.40
913;DHT22;443;51.448;7.028;2023-02-13T07:02:49;12.20;71.30
913;DHT22;443;51.448;7.028;2023-02-13T07:05:16;12.20;71.60
913;DHT22;443;51.448;7.028;2023-02-13T07:07:43;12.20;71.10
913;DHT22;443;51.448;7.028;2023-02-13T07:10:12;12.20;71.30
913;DHT22;443;51.448;7.028;2023-02-13T07:12:39;12.20;71.30
913;DHT22;443;51.448;7.028;2023-02-13T07:15:08;12.20;71.20
913;DHT22;443;51.448;7.028;2023-02-13T07:17:35;12.20;71.40
913;DHT22;443;51.448;7.028;2023-02-13T07:20:02;12.20;71.60
913;DHT22;443;51.448;7.028;2023-02-13T07:22:30;12.10;71.10
913;DHT22;443;51.448;7.028;2023-02-13T07:24:57;12.10;71.20
913;DHT22;443;51.448;7.028;2023-02-13T07:27:24;12.20;71.30
913;DHT22;443;51.448;7.028;2023-02-13T07:29:53;12.20;71.60
913;DHT22;443;51.448;7.028;2023-02-13T07:32:22;12.10;71.30
913;DHT22;443;51.448;7.028;2023-02-13T07:34:49;12.10;71.30
913;DHT22;443;51.448;7.028;2023-02-13T07:37:16;12.10;71.50
913;DHT22;443;51.448;7.028;2023-02-13T07:39:43;12.10;71.20
913;DHT22;443;51.448;7.028;2023-02-13T07:42:10;12.10;71.00
913;DHT22;443;51.448;7.028;2023-02-13T07:44:37;12.10;71.00
913;DHT22;443;51.448;7.028;2023-02-13T07:47:03;12.00;71.40
913;DHT22;443;51.448;7.028;2023-02-13T07:49:32;12.00;71.20
913;DHT22;443;51.448;7.028;2023-02-13T07:51:59;12.10;71.60
913;DHT22;443;51.448;7.028;2023-02-13T07:54:26;12.10;71.90
913;DHT22;443;51.448;7.028;2023-02-13T07:56:52;12.10;71.60
913;DHT22;443;51.448;7.028;2023-02-13T07:59:19;12.10;71.70
913;DHT22;443;51.448;7.028;2023-02-13T08:01:46;12.10;71.80
913;DHT22;443;51.448;7.028;2023-02-13T08:04:12;12.00;71.40
913;DHT22;443;51.448;7.028;2023-02-13T08:06:41;12.10;71.60
913;DHT22;443;51.448;7.028;2023-02-13T08:09:13;12.10;71.90
913;DHT22;443;51.448;7.028;2023-02-13T08:12:01;12.10;72.10
913;DHT22;443;51.448;7.028;2023-02-13T08:14:28;12.10;71.80
913;DHT22;443;51.448;7.028;2023-02-13T08:16:54;12.10;72.30
913;DHT22;443;51.448;7.028;2023-02-13T08:19:21;12.20;72.40
913;DHT22;443;51.448;7.028;2023-02-13T08:21:49;12.20;71.90
913;DHT22;443;51.448;7.028;2023-02-13T08:24:16;12.20;71.60
913;DHT22;443;51.448;7.028;2023-02-13T08:26:43;12.40;72.90
913;DHT22;443;51.448;7.028;2023-02-13T08:29:09;12.70;72.40
913;DHT22;443;51.448;7.028;2023-02-13T08:31:36;12.80;70.90
913;DHT22;443;51.448;7.028;2023-02-13T08:34:03;12.50;70.00
913;DHT22;443;51.448;7.028;2023-02-13T08:36:30;12.50;71.90
913;DHT22;443;51.448;7.028;2023-02-13T08:38:58;12.50;71.30
913;DHT22;443;51.448;7.028;2023-02-13T08:41:25;12.40;70.70
913;DHT22;443;51.448;7.028;2023-02-13T08:43:52;12.40;71.10
913;DHT22;443;51.448;7.028;2023-02-13T08:46:19;12.40;71.00
913;DHT22;443;51.448;7.028;2023-02-13T08:48:46;12.50;72.00
913;DHT22;443;51.448;7.028;2023-02-13T08:51:13;12.50;71.00
913;DHT22;443;51.448;7.028;2023-02-13T08:53:40;12.50;70.70
913;DHT22;443;51.448;7.028;2023-02-13T08:56:09;12.50;70.90
913;DHT22;443;51.448;7.028;2023-02-13T08:58:36;12.50;70.90
913;DHT22;443;51.448;7.028;2023-02-13T09:01:07;12.60;71.60
913;DHT22;443;51.448;7.028;2023-02-13T09:03:34;12.50;70.60
913;DHT22;443;51.448;7.028;2023-02-13T09:06:01;12.50;70.50
913;DHT22;443;51.448;7.028;2023-02-13T09:08:29;12.50;70.80
913;DHT22;443;51.448;7.028;2023-02-13T09:10:57;12.60;71.70
913;DHT22;443;51.448;7.028;2023-02-13T09:13:27;12.50;70.00
913;DHT22;443;51.448;7.028;2023-02-13T09:15:57;12.50;70.00
913;DHT22;443;51.448;7.028;2023-02-13T09:18:24;12.60;70.90
913;DHT22;443;51.448;7.028;2023-02-13T09:20:56;12.60;69.80
913;DHT22;443;51.448;7.028;2023-02-13T09:23:23;12.60;70.00
913;DHT22;443;51.448;7.028;2023-02-13T09:25:50;12.60;70.40
913;DHT22;443;51.448;7.028;2023-02-13T09:28:17;12.60;70.00
913;DHT22;443;51.448;7.028;2023-02-13T09:30:45;12.60;69.90
913;DHT22;443;51.448;7.028;2023-02-13T09:33:14;12.70;71.00
913;DHT22;443;51.448;7.028;2023-02-13T09:35:41;12.70;70.20
913;DHT22;443;51.448;7.028;2023-02-13T09:38:09;12.70;70.30
913;DHT22;443;51.448;7.028;2023-02-13T09:40:40;12.80;69.50
913;DHT22;443;51.448;7.028;2023-02-13T09:43:13;12.80;69.70
913;DHT22;443;51.448;7.028;2023-02-13T09:45:42;12.80;70.10
913;DHT22;443;51.448;7.028;2023-02-13T09:48:17;12.80;69.80
913;DHT22;443;51.448;7.028;2023-02-13T09:50:44;13.00;71.80
913;DHT22;443;51.448;7.028;2023-02-13T09:53:18;13.00;69.70
913;DHT22;443;51.448;7.028;2023-02-13T09:55:50;12.90;69.10
913;DHT22;443;51.448;7.028;2023-02-13T09:58:33;12.90;70.00
913;DHT22;443;51.448;7.028;2023-02-13T10:01:03;13.00;68.80
913;DHT22;443;51.448;7.028;2023-02-13T10:03:36;12.90;68.80
913;DHT22;443;51.448;7.028;2023-02-13T10:06:10;13.00;70.00
913;DHT22;443;51.448;7.028;2023-02-13T10:08:53;13.00;69.90
913;DHT22;443;51.448;7.028;2023-02-13T10:14:33;13.00;68.80
913;DHT22;443;51.448;7.028;2023-02-13T10:17:04;13.00;68.70
913;DHT22;443;51.448;7.028;2023-02-13T10:19:39;13.10;69.20
913;DHT22;443;51.448;7.028;2023-02-13T10:22:12;13.10;68.40
913;DHT22;443;51.448;7.028;2023-02-13T10:24:43;13.20;70.90
913;DHT22;443;51.448;7.028;2023-02-13T10:27:18;13.20;68.20
913;DHT22;443;51.448;7.028;2023-02-13T10:29:48;13.20;68.90
913;DHT22;443;51.448;7.028;2023-02-13T10:32:37;13.20;69.40
913;DHT22;443;51.448;7.028;2023-02-13T10:35:20;13.20;69.10
913;DHT22;443;51.448;7.028;2023-02-13T10:37:50;13.20;67.60
913;DHT22;443;51.448;7.028;2023-02-13T10:40:18;13.20;68.20
913;DHT22;443;51.448;7.028;2023-02-13T10:42:48;13.20;68.50
913;DHT22;443;51.448;7.028;2023-02-13T10:45:30;13.30;69.40
913;DHT22;443;51.448;7.028;2023-02-13T10:48:09;13.50;70.80
913;DHT22;443;51.448;7.028;2023-02-13T10:50:44;13.40;68.40
913;DHT22;443;51.448;7.028;2023-02-13T10:53:22;13.40;68.90
913;DHT22;443;51.448;7.028;2023-02-13T10:56:08;13.40;68.60
913;DHT22;443;51.448;7.028;2023-02-13T10:58:49;13.50;70.60
913;DHT22;443;51.448;7.028;2023-02-13T11:01:21;13.70;70.80
913;DHT22;443;51.448;7.028;2023-02-13T11:04:02;13.60;68.10
913;DHT22;443;51.448;7.028;2023-02-13T11:06:33;13.50;68.40
913;DHT22;443;51.448;7.028;2023-02-13T11:09:03;13.50;68.20
913;DHT22;443;51.448;7.028;2023-02-13T11:11:32;13.60;68.60
913;DHT22;443;51.448;7.028;2023-02-13T11:14:14;13.60;69.20
913;DHT22;443;51.448;7.028;2023-02-13T11:16:47;13.70;69.40
913;DHT22;443;51.448;7.028;2023-02-13T11:19:21;13.80;70.30
913;DHT22;443;51.448;7.028;2023-02-13T11:21:53;13.80;69.70
913;DHT22;443;51.448;7.028;2023-02-13T11:24:22;13.90;70.00
913;DHT22;443;51.448;7.028;2023-02-13T11:26:51;13.90;68.10
913;DHT22;443;51.448;7.028;2023-02-13T11:29:23;13.90;67.80
913;DHT22;443;51.448;7.028;2023-02-13T11:32:05;14.00;69.30
913;DHT22;443;51.448;7.028;2023-02-13T11:34:36;14.00;69.30
913;DHT22;443;51.448;7.028;2023-02-13T11:37:18;13.90;67.50
913;DHT22;443;51.448;7.028;2023-02-13T11:39:46;13.90;67.10
913;DHT22;443;51.448;7.028;2023-02-13T11:42:14;13.90;67.60
913;DHT22;443;51.448;7.028;2023-02-13T11:44:44;14.00;69.10
913;DHT22;443;51.448;7.028;2023-02-13T11:47:14;14.00;67.70
913;DHT22;443;51.448;7.028;2023-02-13T11:49:45;14.00;68.30
913;DHT22;443;51.448;7.028;2023-02-13T11:52:23;14.00;69.00
913;DHT22;443;51.448;7.028;2023-02-13T11:54:56;14.00;68.90
913;DHT22;443;51.448;7.028;2023-02-13T11:57:27;14.10;68.30
913;DHT22;443;51.448;7.028;2023-02-13T11:59:55;14.10;68.20
913;DHT22;443;51.448;7.028;2023-02-13T12:02:24;14.10;69.30
913;DHT22;443;51.448;7.028;2023-02-13T12:04:52;14.10;68.70
913;DHT22;443;51.448;7.028;2023-02-13T12:07:24;14.10;67.40
913;DHT22;443;51.448;7.028;2023-02-13T12:09:56;14.20;67.80
913;DHT22;443;51.448;7.028;2023-02-13T12:12:31;14.20;68.60
913;DHT22;443;51.448;7.028;2023-02-13T12:15:02;14.20;68.90
913;DHT22;443;51.448;7.028;2023-02-13T12:17:31;14.20;68.90
913;DHT22;443;51.448;7.028;2023-02-13T12:20:00;14.20;68.90
913;DHT22;443;51.448;7.028;2023-02-13T12:22:31;14.20;67.40
913;DHT22;443;51.448;7.028;2023-02-13T12:28:10;14.30;67.50
913;DHT22;443;51.448;7.028;2023-02-13T12:31:02;14.30;67.50
913;DHT22;443;51.448;7.028;2023-02-13T12:36:36;14.30;68.40
913;DHT22;443;51.448;7.028;2023-02-13T12:39:17;14.40;67.40
913;DHT22;443;51.448;7.028;2023-02-13T12:41:51;14.40;67.90
913;DHT22;443;51.448;7.028;2023-02-13T12:44:42;14.40;66.80
913;DHT22;443;51.448;7.028;2023-02-13T12:47:17;14.50;65.50
913;DHT22;443;51.448;7.028;2023-02-13T12:50:12;14.50;67.60
913;DHT22;443;51.448;7.028;2023-02-13T12:53:05;14.40;67.80
913;DHT22;443;51.448;7.028;2023-02-13T12:55:47;14.40;68.20
913;DHT22;443;51.448;7.028;2023-02-13T12:58:38;14.40;68.40
913;DHT22;443;51.448;7.028;2023-02-13T13:01:13;14.40;68.40
913;DHT22;443;51.448;7.028;2023-02-13T13:03:50;14.40;68.20
913;DHT22;443;51.448;7.028;2023-02-13T13:06:45;14.40;68.40
913;DHT22;443;51.448;7.028;2023-02-13T13:09:44;14.50;65.80
913;DHT22;443;51.448;7.028;2023-02-13T13:12:33;14.60;67.40
913;DHT22;443;51.448;7.028;2023-02-13T13:15:10;14.50;67.90
913;DHT22;443;51.448;7.028;2023-02-13T13:17:57;14.50;67.70
913;DHT22;443;51.448;7.028;2023-02-13T13:20:39;14.50;68.00
913;DHT22;443;51.448;7.028;2023-02-13T13:23:12;14.50;68.10
913;DHT22;443;51.448;7.028;2023-02-13T13:25:46;14.50;68.00
913;DHT22;443;51.448;7.028;2023-02-13T13:28:19;14.50;67.90
913;DHT22;443;51.448;7.028;2023-02-13T13:30:48;14.60;67.20
913;DHT22;443;51.448;7.028;2023-02-13T13:33:17;14.70;66.80
913;DHT22;443;51.448;7.028;2023-02-13T13:35:49;14.70;67.50
913;DHT22;443;51.448;7.028;2023-02-13T13:38:24;14.60;67.60
913;DHT22;443;51.448;7.028;2023-02-13T13:40:58;14.60;67.70
913;DHT22;443;51.448;7.028;2023-02-13T13:43:34;14.60;67.70
913;DHT22;443;51.448;7.028;2023-02-13T13:46:10;14.60;67.80
913;DHT22;443;51.448;7.028;2023-02-13T13:48:57;14.60;67.20
913;DHT22;443;51.448;7.028;2023-02-13T13:51:25;14.60;67.70
913;DHT22;443;51.448;7.028;2023-02-13T13:54:32;14.60;67.70
913;DHT22;443;51.448;7.028;2023-02-13T13:57:10;14.70;67.50
913;DHT22;443;51.448;7.028;2023-02-13T14:00:18;14.80;66.90
913;DHT22;443;51.448;7.028;2023-02-13T14:02:49;14.80;67.30
913;DHT22;443;51.448;7.028;2023-02-13T14:05:27;14.80;66.10
913;DHT22;443;51.448;7.028;2023-02-13T14:07:56;14.80;66.90
913;DHT22;443;51.448;7.028;2023-02-13T14:10:57;14.80;67.00
913;DHT22;443;51.448;7.028;2023-02-13T14:13:39;14.90;67.00
913;DHT22;443;51.448;7.028;2023-02-13T14:16:10;14.90;66.90
913;DHT22;443;51.448;7.028;2023-02-13T14:18:37;14.90;66.70
913;DHT22;443;51.448;7.028;2023-02-13T14:21:10;14.90;66.60
913;DHT22;443;51.448;7.028;2023-02-13T14:23:46;15.00;66.60
913;DHT22;443;51.448;7.028;2023-02-13T14:26:31;15.00;66.40
913;DHT22;443;51.448;7.028;2023-02-13T14:29:11;15.00;66.20
913;DHT22;443;51.448;7.028;2023-02-13T14:31:42;15.10;66.10
913;DHT22;443;51.448;7.028;2023-02-13T14:34:19;15.10;65.90
913;DHT22;443;51.448;7.028;2023-02-13T14:37:02;15.20;65.80
913;DHT22;443;51.448;7.028;2023-02-13T14:39:32;15.20;66.30
913;DHT22;443;51.448;7.028;2023-02-13T14:42:00;15.30;65.50
913;DHT22;443;51.448;7.028;2023-02-13T14:44:32;15.30;65.30
913;DHT22;443;51.448;7.028;2023-02-13T14:47:02;15.40;65.20
913;DHT22;443;51.448;7.028;2023-02-13T14:49:32;15.40;65.10
913;DHT22;443;51.448;7.028;2023-02-13T14:52:03;15.40;65.10
913;DHT22;443;51.448;7.028;2023-02-13T14:54:32;15.40;65.00
913;DHT22;443;51.448;7.028;2023-02-13T14:57:05;15.50;64.90
913;DHT22;443;51.448;7.028;2023-02-13T14:59:37;15.60;64.80
913;DHT22;443;51.448;7.028;2023-02-13T15:02:16;15.60;64.50
913;DHT22;443;51.448;7.028;2023-02-13T15:04:46;15.70;64.40
913;DHT22;443;51.448;7.028;2023-02-13T15:07:18;15.70;64.30
913;DHT22;443;51.448;7.028;2023-02-13T15:09:50;15.70;64.90
913;DHT22;443;51.448;7.028;2023-02-13T15:12:24;15.80;64.10
913;DHT22;443;51.448;7.028;2023-02-13T15:14:52;15.80;63.90
913;DHT22;443;51.448;7.028;2023-02-13T15:17:22;15.80;63.80
913;DHT22;443;51.448;7.028;2023-02-13T15:19:51;15.90;63.80
913;DHT22;443;51.448;7.028;2023-02-13T15:22:21;15.90;63.60
913;DHT22;443;51.448;7.028;2023-02-13T15:24:51;15.90;63.60
913;DHT22;443;51.448;7.028;2023-02-13T15:27:22;15.90;63.50
913;DHT22;443;51.448;7.028;2023-02-13T15:29:55;15.90;63.50
913;DHT22;443;51.448;7.028;2023-02-13T15:32:31;15.90;63.50
913;DHT22;443;51.448;7.028;2023-02-13T15:34:58;15.90;63.50
913;DHT22;443;51.448;7.028;2023-02-13T15:37:28;15.90;63.60
913;DHT22;443;51.448;7.028;2023-02-13T15:40:12;15.90;63.80
913;DHT22;443;51.448;7.028;2023-02-13T15:42:40;15.80;63.80
913;DHT22;443;51.448;7.028;2023-02-13T15:45:13;15.70;64.10
913;DHT22;443;51.448;7.028;2023-02-13T15:47:44;15.70;64.20
913;DHT22;443;51.448;7.028;2023-02-13T15:50:27;15.60;64.40
913;DHT22;443;51.448;7.028;2023-02-13T15:52:54;15.60;64.60
913;DHT22;443;51.448;7.028;2023-02-13T15:55:23;15.60;64.70
913;DHT22;443;51.448;7.028;2023-02-13T15:57:51;15.60;64.80
913;DHT22;443;51.448;7.028;2023-02-13T16:00:23;15.60;64.80
913;DHT22;443;51.448;7.028;2023-02-13T16:02:53;15.60;64.90
913;DHT22;443;51.448;7.028;2023-02-13T16:05:21;15.60;64.90
913;DHT22;443;51.448;7.028;2023-02-13T16:07:49;15.60;64.70
913;DHT22;443;51.448;7.028;2023-02-13T16:10:22;15.50;65.00
913;DHT22;443;51.448;7.028;2023-02-13T16:12:51;15.50;64.90
913;DHT22;443;51.448;7.028;2023-02-13T16:15:20;15.50;64.90
913;DHT22;443;51.448;7.028;2023-02-13T16:17:47;15.50;65.20
913;DHT22;443;51.448;7.028;2023-02-13T16:20:21;15.40;65.20
913;DHT22;443;51.448;7.028;2023-02-13T16:22:50;15.40;65.20
913;DHT22;443;51.448;7.028;2023-02-13T16:25:22;15.40;65.20
913;DHT22;443;51.448;7.028;2023-02-13T16:27:51;15.40;65.10
913;DHT22;443;51.448;7.028;2023-02-13T16:30:25;15.40;65.10
913;DHT22;443;51.448;7.028;2023-02-13T16:33:16;15.40;64.90
913;DHT22;443;51.448;7.028;2023-02-13T16:35:47;15.50;64.80
913;DHT22;443;51.448;7.028;2023-02-13T16:38:29;15.50;64.60
913;DHT22;443;51.448;7.028;2023-02-13T16:40:58;15.50;64.00
913;DHT22;443;51.448;7.028;2023-02-13T16:43:39;15.50;64.20
913;DHT22;443;51.448;7.028;2023-02-13T16:46:30;15.50;64.30
913;DHT22;443;51.448;7.028;2023-02-13T16:49:14;15.50;64.50
913;DHT22;443;51.448;7.028;2023-02-13T16:51:44;15.40;64.20
913;DHT22;443;51.448;7.028;2023-02-13T16:54:18;15.40;64.50
913;DHT22;443;51.448;7.028;2023-02-13T16:56:47;15.30;65.10
913;DHT22;443;51.448;7.028;2023-02-13T16:59:28;15.30;64.90
913;DHT22;443;51.448;7.028;2023-02-13T17:02:14;15.20;65.40
913;DHT22;443;51.448;7.028;2023-02-13T17:04:42;15.20;65.10
913;DHT22;443;51.448;7.028;2023-02-13T17:07:16;15.20;64.80
913;DHT22;443;51.448;7.028;2023-02-13T17:09:44;15.20;64.90
913;DHT22;443;51.448;7.028;2023-02-13T17:12:13;15.10;65.30
913;DHT22;443;51.448;7.028;2023-02-13T17:14:41;15.10;65.30
913;DHT22;443;51.448;7.028;2023-02-13T17:17:10;15.10;65.50
913;DHT22;443;51.448;7.028;2023-02-13T17:19:38;15.00;65.70